Time;durP1;ratioP1;P1;durP2;ratioP2;P2;SDS_P1;SDS_P2;PMS_P1;PMS_P2;Temp;Humidity;BMP_temperature;BMP_pressure;BME280_temperature;BME280_humidity;BME280_pressure;Samples;Min_cycle;Max_cycle;Signal;HPM_P1;HPM_P2
2021/10/09 00:01:42;;;;;;;0.70;0.60;;;13.80;77.50;;;;;;5004136;28;20216;-71
2021/10/09 00:04:10;;;;;;;0.40;0.40;;;13.80;77.60;;;;;;5005195;28;20270;-71
2021/10/09 00:06:37;;;;;;;0.10;0.10;;;13.70;77.70;;;;;;5006786;28;20223;-71
2021/10/09 00:09:04;;;;;;;0.43;0.43;;;13.70;77.90;;;;;;5004883;28;20224;-71
2021/10/09 00:11:37;;;;;;;0.40;0.40;;;13.70;77.90;;;;;;5005253;28;20611;-71
2021/10/09 00:14:09;;;;;;;0.10;0.10;;;13.70;78.00;;;;;;5006958;28;20224;-71
2021/10/09 00:16:38;;;;;;;0.20;0.20;;;13.60;78.10;;;;;;5005434;28;20302;-72
2021/10/09 00:19:05;;;;;;;0.63;0.63;;;13.60;78.10;;;;;;5006144;28;20216;-72
2021/10/09 00:21:32;;;;;;;0.40;0.40;;;13.70;78.20;;;;;;5008097;28;20236;-71
2021/10/09 00:24:00;;;;;;;0.20;0.20;;;13.60;78.20;;;;;;5010149;28;20221;-71
2021/10/09 00:26:28;;;;;;;0.70;0.57;;;13.60;78.30;;;;;;5012451;28;20236;-72
2021/10/09 00:28:55;;;;;;;0.20;0.20;;;13.50;78.50;;;;;;5011805;28;20217;-71
2021/10/09 00:31:22;;;;;;;0.73;0.73;;;13.50;78.70;;;;;;5009984;28;20279;-71
2021/10/09 00:33:51;;;;;;;0.20;0.20;;;13.50;78.90;;;;;;5011986;28;20561;-71
2021/10/09 00:36:18;;;;;;;0.50;0.50;;;13.40;79.00;;;;;;5012965;28;20213;-71
2021/10/09 00:38:45;;;;;;;1.70;0.80;;;13.40;79.20;;;;;;5005673;28;20255;-71
2021/10/09 00:41:12;;;;;;;0.17;0.17;;;13.30;79.30;;;;;;4999979;28;20665;-71
2021/10/09 00:43:39;;;;;;;0.77;0.37;;;13.30;79.40;;;;;;5001615;28;20213;-71
2021/10/09 00:46:07;;;;;;;0.30;0.30;;;13.30;79.50;;;;;;5001316;28;20652;-71
2021/10/09 00:48:35;;;;;;;0.10;0.10;;;13.20;79.50;;;;;;5001660;28;20275;-72
2021/10/09 00:51:04;;;;;;;0.10;0.10;;;13.20;79.70;;;;;;5001228;28;20248;-71
2021/10/09 00:53:33;;;;;;;0.37;0.23;;;13.20;79.90;;;;;;4998645;28;20295;-71
2021/10/09 00:56:01;;;;;;;0.83;0.83;;;13.20;80.00;;;;;;4995996;28;20278;-71
2021/10/09 00:58:29;;;;;;;0.87;0.87;;;13.10;80.20;;;;;;4996006;28;20220;-71
2021/10/09 01:00:57;;;;;;;0.10;0.10;;;13.10;80.40;;;;;;5011332;28;20300;-71
2021/10/09 01:03:24;;;;;;;0.70;0.70;;;13.10;80.50;;;;;;5015315;28;20230;-71
2021/10/09 01:05:51;;;;;;;0.70;0.70;;;13.00;80.50;;;;;;5014755;28;20609;-71
2021/10/09 01:08:19;;;;;;;0.57;0.57;;;13.00;80.60;;;;;;5014377;28;20204;-71
2021/10/09 01:10:45;;;;;;;0.10;0.10;;;13.00;80.70;;;;;;5014707;28;20219;-71
2021/10/09 01:13:12;;;;;;;0.30;0.30;;;13.00;80.80;;;;;;5015002;28;20216;-71
2021/10/09 01:15:39;;;;;;;0.77;0.77;;;13.00;80.90;;;;;;5013937;28;20290;-71
2021/10/09 01:18:11;;;;;;;4.60;2.43;;;13.00;81.00;;;;;;5015217;28;20204;-71
2021/10/09 01:21:01;;;;;;;0.10;0.10;;;12.90;81.10;;;;;;5014591;28;20235;-71
2021/10/09 01:23:29;;;;;;;0.43;0.43;;;12.90;81.20;;;;;;5014407;28;20207;-71
2021/10/09 01:25:56;;;;;;;1.50;1.17;;;12.80;81.50;;;;;;5011416;28;20243;-71
2021/10/09 01:28:23;;;;;;;0.20;0.20;;;12.70;81.60;;;;;;5014479;28;20208;-72
2021/10/09 01:30:54;;;;;;;0.93;0.90;;;12.70;81.90;;;;;;5013588;28;20266;-71
2021/10/09 01:33:21;;;;;;;0.30;0.30;;;12.70;82.10;;;;;;5014750;28;20208;-72
2021/10/09 01:35:49;;;;;;;4.03;1.13;;;12.60;82.10;;;;;;5015079;28;20216;-71
2021/10/09 01:38:18;;;;;;;2.57;1.50;;;12.60;82.30;;;;;;5015766;28;20238;-72
2021/10/09 01:40:45;;;;;;;0.60;0.60;;;12.60;82.40;;;;;;5013972;28;20246;-72
2021/10/09 01:43:14;;;;;;;1.30;0.73;;;12.60;82.50;;;;;;5014810;28;20214;-71
2021/10/09 01:45:42;;;;;;;0.77;0.73;;;12.60;82.60;;;;;;5014294;28;20293;-72
2021/10/09 01:48:12;;;;;;;0.60;0.60;;;12.60;82.60;;;;;;5014508;28;20220;-71
2021/10/09 01:50:39;;;;;;;0.10;0.10;;;12.60;82.70;;;;;;5013883;28;20271;-71
2021/10/09 01:53:07;;;;;;;0.33;0.23;;;12.60;82.90;;;;;;5014353;28;20211;-71
2021/10/09 01:55:35;;;;;;;0.87;0.87;;;12.60;83.00;;;;;;5014002;28;20212;-71
2021/10/09 01:58:03;;;;;;;0.30;0.30;;;12.50;83.20;;;;;;5013147;28;20639;-71
2021/10/09 02:00:33;;;;;;;0.03;0.03;;;12.50;83.50;;;;;;5012865;28;20719;-71
2021/10/09 02:03:03;;;;;;;0.40;0.40;;;12.50;83.50;;;;;;5014430;28;20215;-71
2021/10/09 02:05:31;;;;;;;1.43;1.10;;;12.40;83.40;;;;;;5007866;28;20212;-71
2021/10/09 02:07:59;;;;;;;0.40;0.40;;;12.40;83.30;;;;;;5010825;28;20258;-71
2021/10/09 02:10:27;;;;;;;0.33;0.33;;;12.40;83.30;;;;;;5013570;28;20204;-71
2021/10/09 02:12:54;;;;;;;1.53;1.50;;;12.30;83.30;;;;;;5013934;28;20216;-71
2021/10/09 02:15:27;;;;;;;0.57;0.57;;;12.30;83.60;;;;;;5013436;28;20208;-71
2021/10/09 02:18:19;;;;;;;3.30;0.50;;;12.30;83.70;;;;;;5013539;28;20765;-71
2021/10/09 02:26:16;;;;;;;0.20;0.20;;;12.10;84.20;;;;;;5013106;28;20235;-71
2021/10/09 02:28:43;;;;;;;0.53;0.53;;;12.00;84.20;;;;;;5013534;28;20212;-71
2021/10/09 02:31:10;;;;;;;0.60;0.60;;;12.00;84.20;;;;;;5014079;28;20224;-71
2021/10/09 02:33:37;;;;;;;0.10;0.10;;;11.90;84.20;;;;;;5012394;28;20235;-71
2021/10/09 02:36:05;;;;;;;11.77;0.97;;;11.90;84.30;;;;;;5013218;28;20222;-71
2021/10/09 02:38:32;;;;;;;0.37;0.23;;;11.90;84.20;;;;;;5013576;28;20223;-72
2021/10/09 02:40:59;;;;;;;0.67;0.67;;;11.90;84.20;;;;;;5012809;28;20227;-72
2021/10/09 02:43:26;;;;;;;0.93;0.50;;;11.80;84.20;;;;;;5013481;28;20215;-71
2021/10/09 02:45:52;;;;;;;1.27;1.17;;;11.80;84.20;;;;;;5013417;28;20218;-71
2021/10/09 02:48:20;;;;;;;1.30;0.77;;;11.70;84.30;;;;;;5013449;28;20265;-71
2021/10/09 02:50:47;;;;;;;1.40;1.03;;;11.70;84.40;;;;;;5012017;28;20220;-71
2021/10/09 02:53:14;;;;;;;0.33;0.33;;;11.70;84.50;;;;;;5012333;28;20212;-71
2021/10/09 02:55:41;;;;;;;0.40;0.40;;;11.70;84.60;;;;;;5012719;28;20215;-71
2021/10/09 02:58:08;;;;;;;0.73;0.73;;;11.70;84.70;;;;;;5013188;28;20216;-71
2021/10/09 03:00:35;;;;;;;1.23;0.73;;;11.70;84.70;;;;;;5013442;28;20243;-71
2021/10/09 03:03:03;;;;;;;0.20;0.20;;;11.60;84.70;;;;;;5013351;28;20294;-72
2021/10/09 03:05:30;;;;;;;0.93;0.93;;;11.60;84.70;;;;;;5012009;28;20281;-71
2021/10/09 03:07:57;;;;;;;0.60;0.40;;;11.60;84.70;;;;;;5013118;28;20610;-72
2021/10/09 03:10:24;;;;;;;0.60;0.60;;;11.60;84.80;;;;;;5012626;28;20215;-71
2021/10/09 03:12:51;;;;;;;0.47;0.47;;;11.50;84.80;;;;;;5011824;28;20222;-71
2021/10/09 03:15:18;;;;;;;8.23;1.13;;;11.50;84.80;;;;;;5012546;28;20212;-71
2021/10/09 03:17:45;;;;;;;0.43;0.43;;;11.50;85.00;;;;;;5013508;28;20215;-71
2021/10/09 03:20:12;;;;;;;0.73;0.73;;;11.40;84.90;;;;;;5012102;28;20219;-71
2021/10/09 03:22:40;;;;;;;2.83;0.90;;;11.40;84.90;;;;;;5013583;28;20627;-71
2021/10/09 03:25:08;;;;;;;0.77;0.77;;;11.40;84.90;;;;;;5013266;28;20246;-71
2021/10/09 03:27:35;;;;;;;0.70;0.70;;;11.30;85.00;;;;;;5011978;28;20215;-71
2021/10/09 03:30:04;;;;;;;1.23;0.73;;;11.30;85.10;;;;;;5021656;28;20597;-71
2021/10/09 03:32:31;;;;;;;0.67;0.63;;;11.30;85.20;;;;;;5035958;28;20210;-71
2021/10/09 03:34:58;;;;;;;0.50;0.50;;;11.30;85.20;;;;;;5017206;28;20211;-71
2021/10/09 03:37:25;;;;;;;5.40;1.30;;;11.30;85.30;;;;;;5016479;28;20211;-71
2021/10/09 03:39:54;;;;;;;2.00;0.80;;;11.30;85.20;;;;;;5015927;28;20227;-71
2021/10/09 03:42:26;;;;;;;0.43;0.43;;;11.30;85.10;;;;;;5016191;28;20239;-71
2021/10/09 03:44:57;;;;;;;1.97;0.80;;;11.30;85.10;;;;;;5016843;28;20208;-72
2021/10/09 03:47:45;;;;;;;2.93;1.13;;;11.40;85.10;;;;;;5016265;28;20587;-71
2021/10/09 03:52:46;;;;;;;0.60;0.60;;;11.50;85.10;;;;;;5016649;28;20262;-72
2021/10/09 03:55:16;;;;;;;0.63;0.30;;;11.50;85.00;;;;;;5017179;28;20212;-71
2021/10/09 03:57:44;;;;;;;0.60;0.60;;;11.50;85.00;;;;;;5016193;28;20515;-71
2021/10/09 04:00:14;;;;;;;1.07;0.97;;;11.50;85.00;;;;;;5025678;28;20277;-71
2021/10/09 04:02:41;;;;;;;0.10;0.10;;;11.50;85.10;;;;;;5024300;28;20291;-72
2021/10/09 04:05:08;;;;;;;0.40;0.40;;;11.60;85.10;;;;;;5016395;28;20211;-71
2021/10/09 04:07:36;;;;;;;0.60;0.60;;;11.60;85.00;;;;;;5016008;28;20215;-71
2021/10/09 04:10:07;;;;;;;0.17;0.17;;;11.60;84.90;;;;;;5016304;28;20216;-71
2021/10/09 04:12:34;;;;;;;0.40;0.40;;;11.60;85.00;;;;;;5011689;28;20200;-71
2021/10/09 04:15:02;;;;;;;1.90;0.43;;;11.60;85.00;;;;;;5007102;28;20273;-71
2021/10/09 04:17:29;;;;;;;0.20;0.20;;;11.60;85.10;;;;;;5016127;28;20285;-71
2021/10/09 04:19:56;;;;;;;0.40;0.40;;;11.70;85.10;;;;;;5015189;28;20218;-71
2021/10/09 04:22:23;;;;;;;0.40;0.40;;;11.70;85.10;;;;;;5015549;28;20242;-71
2021/10/09 04:24:50;;;;;;;0.20;0.20;;;11.70;85.10;;;;;;5020607;28;20247;-72
2021/10/09 04:27:17;;;;;;;1.07;1.07;;;11.70;85.10;;;;;;5015946;28;20203;-72
2021/10/09 04:29:44;;;;;;;0.40;0.40;;;11.60;85.10;;;;;;5021475;28;20219;-71
2021/10/09 04:32:11;;;;;;;2.17;0.77;;;11.60;85.00;;;;;;5036065;28;20215;-71
2021/10/09 04:34:38;;;;;;;1.07;0.97;;;11.60;85.20;;;;;;5017025;28;20211;-71
2021/10/09 04:37:05;;;;;;;7.23;1.13;;;11.50;85.10;;;;;;5014613;28;20227;-71
2021/10/09 04:39:32;;;;;;;0.20;0.20;;;11.50;85.80;;;;;;5015665;28;20224;-71
2021/10/09 04:42:02;;;;;;;0.63;0.47;;;11.50;85.20;;;;;;5015040;28;20227;-71
2021/10/09 04:44:29;;;;;;;0.57;0.57;;;11.50;85.20;;;;;;5015626;28;20212;-71
2021/10/09 04:46:56;;;;;;;0.73;0.73;;;11.50;85.20;;;;;;5014332;28;20299;-71
2021/10/09 04:49:23;;;;;;;0.70;0.70;;;11.50;85.20;;;;;;5016042;28;20215;-71
2021/10/09 04:51:50;;;;;;;4.60;3.20;;;11.50;85.20;;;;;;5015336;28;20281;-71
2021/10/09 04:54:17;;;;;;;0.90;0.90;;;11.50;85.10;;;;;;5015741;28;20208;-71
2021/10/09 04:56:44;;;;;;;0.50;0.50;;;11.50;85.00;;;;;;5014961;28;20651;-71
2021/10/09 04:59:11;;;;;;;0.40;0.40;;;11.50;85.00;;;;;;5016537;28;20216;-71
2021/10/09 05:01:38;;;;;;;0.30;0.30;;;11.50;85.00;;;;;;5033522;28;20237;-71
2021/10/09 05:04:05;;;;;;;2.10;0.63;;;11.40;85.10;;;;;;5035142;28;20486;-71
2021/10/09 05:06:32;;;;;;;0.20;0.20;;;11.40;85.10;;;;;;5034043;28;20292;-71
2021/10/09 05:08:59;;;;;;;1.03;0.93;;;11.40;85.20;;;;;;5034089;28;20542;-71
2021/10/09 05:11:26;;;;;;;2.00;1.23;;;11.40;85.10;;;;;;5035131;28;20215;-71
2021/10/09 05:13:53;;;;;;;0.10;0.10;;;11.40;85.10;;;;;;5034221;28;20218;-72
2021/10/09 05:16:20;;;;;;;0.40;0.40;;;11.40;85.10;;;;;;5013935;28;20215;-72
2021/10/09 05:18:47;;;;;;;1.90;1.13;;;11.30;85.10;;;;;;5014308;28;20216;-73
2021/10/09 05:21:14;;;;;;;2.20;0.60;;;11.30;85.10;;;;;;5015555;28;20227;-73
2021/10/09 05:23:41;;;;;;;0.47;0.47;;;11.20;85.10;;;;;;5014148;28;20662;-72
2021/10/09 05:26:09;;;;;;;0.30;0.30;;;11.20;85.20;;;;;;5016065;28;20581;-72
2021/10/09 05:28:46;;;;;;;1.03;1.03;;;11.20;85.20;;;;;;5015815;28;20200;-72
2021/10/09 05:31:25;;;;;;;0.80;0.80;;;11.20;85.20;;;;;;5014672;28;20628;-72
2021/10/09 05:33:53;;;;;;;0.67;0.57;;;11.10;85.10;;;;;;5030470;28;20219;-72
2021/10/09 05:36:21;;;;;;;5.53;1.73;;;11.10;85.10;;;;;;5015200;28;20208;-72
2021/10/09 05:38:49;;;;;;;0.37;0.37;;;11.10;85.00;;;;;;5015049;28;20215;-72
2021/10/09 05:41:17;;;;;;;0.63;0.57;;;11.10;85.10;;;;;;5014079;28;20235;-72
2021/10/09 05:43:45;;;;;;;2.63;1.27;;;11.10;85.10;;;;;;5014338;28;20274;-72
2021/10/09 05:46:13;;;;;;;2.23;0.73;;;11.10;85.10;;;;;;5014022;28;20220;-72
2021/10/09 05:48:41;;;;;;;0.10;0.10;;;11.10;85.10;;;;;;5014252;28;20243;-72
2021/10/09 05:54:19;;;;;;;2.83;1.17;;;11.10;85.10;;;;;;4972290;28;20229;-73
2021/10/09 06:42:13;;;;;;;0.40;0.40;;;12.50;82.40;;;;;;5013830;28;20212;-72
2021/10/09 06:59:57;;;;;;;0.57;0.57;;;13.50;80.20;;;;;;5013774;28;20215;-72
2021/10/09 07:02:24;;;;;;;0.47;0.47;;;13.60;80.00;;;;;;5011779;28;20285;-72
2021/10/09 07:04:51;;;;;;;1.03;0.80;;;13.70;79.50;;;;;;5012613;28;20650;-72
2021/10/09 07:07:19;;;;;;;0.40;0.40;;;13.80;79.10;;;;;;5012511;28;20203;-72
2021/10/09 07:09:46;;;;;;;4.90;1.00;;;13.90;78.90;;;;;;5013572;28;20215;-72
2021/10/09 07:12:13;;;;;;;1.73;1.13;;;14.00;78.60;;;;;;5013221;28;20566;-73
2021/10/09 07:14:40;;;;;;;0.57;0.57;;;14.20;78.30;;;;;;5016029;28;20218;-73
2021/10/09 07:17:08;;;;;;;0.20;0.20;;;14.30;77.90;;;;;;5012003;28;20270;-73
2021/10/09 07:19:35;;;;;;;0.50;0.50;;;14.50;77.50;;;;;;5012932;28;20208;-73
2021/10/09 07:22:02;;;;;;;1.00;1.00;;;14.70;76.60;;;;;;5012677;28;20274;-73
2021/10/09 07:24:50;;;;;;;0.30;0.30;;;14.80;75.60;;;;;;5012386;28;20232;-72
2021/10/09 07:27:17;;;;;;;0.73;0.73;;;14.90;73.70;;;;;;5014116;28;20215;-72
2021/10/09 07:29:44;;;;;;;0.57;0.57;;;15.00;72.10;;;;;;5031685;28;20276;-72
2021/10/09 07:32:11;;;;;;;0.47;0.47;;;15.10;72.00;;;;;;5011265;28;20277;-72
2021/10/09 07:34:38;;;;;;;9.73;1.50;;;15.20;71.40;;;;;;5012425;28;20212;-72
2021/10/09 07:37:05;;;;;;;0.70;0.70;;;15.20;71.50;;;;;;5011504;28;20217;-72
2021/10/09 07:39:32;;;;;;;0.10;0.10;;;15.30;70.80;;;;;;5012845;28;20277;-72
2021/10/09 07:41:59;;;;;;;3.07;1.43;;;15.50;71.30;;;;;;5011228;28;20231;-72
2021/10/09 07:44:27;;;;;;;0.40;0.40;;;15.70;70.00;;;;;;5011859;28;20274;-72
2021/10/09 07:46:54;;;;;;;0.10;0.10;;;15.80;69.60;;;;;;5012714;28;20204;-72
2021/10/09 07:49:21;;;;;;;0.77;0.63;;;16.00;69.40;;;;;;5013367;28;20196;-72
2021/10/09 07:51:48;;;;;;;1.90;0.77;;;16.10;69.30;;;;;;5012873;28;20218;-72
2021/10/09 07:54:15;;;;;;;0.67;0.67;;;16.30;68.60;;;;;;5012754;28;20215;-72
2021/10/09 07:56:42;;;;;;;1.23;1.13;;;16.50;67.40;;;;;;5012110;28;20215;-72
2021/10/09 07:59:09;;;;;;;4.23;1.40;;;16.60;66.40;;;;;;5012397;28;20224;-73
2021/10/09 08:01:36;;;;;;;0.30;0.30;;;16.80;66.30;;;;;;5011985;28;20219;-73
2021/10/09 08:04:04;;;;;;;3.10;0.87;;;17.00;65.70;;;;;;5012261;28;20224;-73
2021/10/09 08:06:31;;;;;;;0.20;0.20;;;17.10;64.20;;;;;;5012227;28;20534;-73
2021/10/09 08:08:57;;;;;;;3.20;2.17;;;17.20;64.60;;;;;;5012351;28;20204;-73
2021/10/09 08:11:25;;;;;;;0.17;0.17;;;17.40;63.90;;;;;;5012125;28;20211;-73
2021/10/09 08:13:52;;;;;;;0.20;0.20;;;17.50;63.00;;;;;;5011908;28;20211;-73
2021/10/09 08:16:19;;;;;;;0.73;0.73;;;17.70;63.60;;;;;;5012631;28;20647;-74
2021/10/09 08:18:46;;;;;;;0.50;0.50;;;17.80;63.30;;;;;;5015413;28;20795;-73
2021/10/09 08:21:13;;;;;;;1.13;0.87;;;18.00;62.60;;;;;;5015644;28;20218;-71
2021/10/09 08:23:47;;;;;;;0.20;0.20;;;18.20;62.30;;;;;;5014211;28;20263;-71
2021/10/09 08:39:31;;;;;;;0.60;0.60;;;18.70;59.10;;;;;;5004384;28;20555;-71
2021/10/09 08:41:58;;;;;;;0.47;0.47;;;18.80;59.90;;;;;;5006083;28;20243;-71
2021/10/09 08:44:25;;;;;;;9.63;3.30;;;19.00;59.70;;;;;;5005608;28;20299;-71
2021/10/09 08:46:52;;;;;;;0.10;0.10;;;19.10;58.80;;;;;;5005369;28;20224;-71
2021/10/09 08:49:19;;;;;;;0.20;0.20;;;19.20;58.50;;;;;;5004590;28;20283;-71
2021/10/09 08:51:50;;;;;;;0.30;0.30;;;19.30;57.70;;;;;;5006784;28;20246;-71
2021/10/09 08:54:17;;;;;;;0.50;0.50;;;19.40;57.50;;;;;;5003950;28;20216;-71
2021/10/09 08:56:47;;;;;;;0.60;0.60;;;19.50;57.10;;;;;;5005802;28;20254;-71
2021/10/09 08:59:27;;;;;;;0.43;0.43;;;19.60;56.50;;;;;;5002216;28;20532;-71
2021/10/09 09:02:17;;;;;;;0.97;0.90;;;19.50;56.00;;;;;;5001459;28;20590;-72
2021/10/09 09:41:28;;;;;;;0.30;0.30;;;19.40;52.80;;;;;;5007349;28;20212;-71
2021/10/09 09:43:55;;;;;;;0.47;0.47;;;19.70;50.40;;;;;;5001644;28;20235;-71
2021/10/09 09:46:26;;;;;;;0.30;0.30;;;19.80;49.80;;;;;;5003080;28;20227;-71
2021/10/09 09:48:54;;;;;;;0.40;0.40;;;19.80;48.90;;;;;;5020310;28;20215;-71
2021/10/09 09:51:22;;;;;;;0.23;0.23;;;19.60;48.20;;;;;;5003682;28;20216;-71
2021/10/09 09:53:51;;;;;;;0.20;0.20;;;19.60;48.20;;;;;;5002656;28;20220;-71
2021/10/09 09:56:18;;;;;;;0.20;0.20;;;19.40;48.60;;;;;;5001300;28;20224;-71
2021/10/09 09:58:52;;;;;;;0.40;0.40;;;19.30;47.70;;;;;;5002256;28;20486;-71
2021/10/09 10:01:21;;;;;;;1.70;0.70;;;19.20;48.70;;;;;;5004679;28;20219;-71
2021/10/09 10:03:48;;;;;;;2.43;0.77;;;19.30;48.80;;;;;;5004468;28;20228;-72
2021/10/09 10:06:16;;;;;;;0.20;0.20;;;19.50;48.30;;;;;;5002593;28;20278;-71
2021/10/09 10:08:44;;;;;;;0.23;0.23;;;19.80;48.50;;;;;;5011941;28;20513;-71
2021/10/09 10:11:12;;;;;;;1.90;0.70;;;20.00;48.10;;;;;;4993328;28;20216;-71
2021/10/09 10:13:42;;;;;;;0.10;0.10;;;20.10;47.50;;;;;;5000806;28;20560;-71
2021/10/09 10:16:11;;;;;;;0.37;0.37;;;20.20;48.30;;;;;;4993521;28;20243;-72
2021/10/09 10:18:44;;;;;;;0.90;0.90;;;20.20;47.50;;;;;;5000612;28;20217;-73
2021/10/09 10:21:37;;;;;;;0.37;0.37;;;19.90;47.00;;;;;;5001033;28;20364;-73
2021/10/09 10:24:09;;;;;;;0.30;0.30;;;19.40;47.30;;;;;;4993037;28;20306;-73
2021/10/09 10:26:36;;;;;;;0.50;0.50;;;19.00;48.60;;;;;;4994261;28;20290;-73
2021/10/09 10:29:20;;;;;;;8.57;0.50;;;18.70;49.40;;;;;;5002985;28;20280;-73
2021/10/09 10:32:07;;;;;;;8.03;0.80;;;18.60;50.20;;;;;;5000947;28;20204;-73
2021/10/09 10:34:34;;;;;;;0.47;0.47;;;18.50;51.20;;;;;;5005026;28;20905;-73
2021/10/09 10:37:01;;;;;;;1.50;0.60;;;18.50;51.60;;;;;;5000949;28;20262;-73
2021/10/09 10:39:40;;;;;;;0.10;0.10;;;18.60;51.40;;;;;;5009099;28;20557;-73
2021/10/09 10:42:30;;;;;;;1.37;1.27;;;19.00;51.10;;;;;;5004996;28;20703;-73
2021/10/09 10:45:15;;;;;;;0.30;0.30;;;19.40;49.50;;;;;;5003948;28;20212;-73
2021/10/09 10:53:24;;;;;;;0.40;0.40;;;19.70;46.30;;;;;;4998305;28;20657;-72
2021/10/09 10:56:10;;;;;;;0.73;0.60;;;19.60;45.50;;;;;;5008875;28;20215;-73
2021/10/09 10:58:39;;;;;;;9.10;0.80;;;19.50;46.80;;;;;;5000951;28;20212;-72
2021/10/09 11:01:21;;;;;;;0.10;0.10;;;19.50;46.40;;;;;;5006286;28;20270;-73
2021/10/09 11:03:50;;;;;;;1.23;0.97;;;19.60;46.20;;;;;;5001786;28;20275;-73
2021/10/09 11:06:19;;;;;;;0.87;0.83;;;19.70;45.60;;;;;;5003133;28;20243;-73
2021/10/09 11:08:47;;;;;;;0.60;0.60;;;19.80;46.30;;;;;;5003234;28;20216;-73
2021/10/09 11:11:15;;;;;;;0.47;0.47;;;19.90;45.20;;;;;;5001806;28;20208;-73
2021/10/09 11:13:48;;;;;;;0.47;0.47;;;19.90;44.80;;;;;;5004827;28;20269;-73
2021/10/09 11:16:15;;;;;;;1.23;0.50;;;20.00;44.40;;;;;;5001541;28;20212;-73
2021/10/09 11:18:49;;;;;;;0.97;0.97;;;20.20;44.70;;;;;;5003424;28;20298;-72
2021/10/09 11:21:17;;;;;;;0.60;0.60;;;20.40;42.80;;;;;;5003448;28;20219;-72
2021/10/09 11:23:54;;;;;;;1.20;0.53;;;20.50;42.70;;;;;;5001086;28;20309;-73
2021/10/09 11:26:22;;;;;;;0.30;0.30;;;20.60;41.90;;;;;;4999403;28;20246;-73
2021/10/09 11:29:05;;;;;;;0.30;0.30;;;20.70;42.00;;;;;;5000303;28;20223;-73
2021/10/09 11:31:32;;;;;;;0.20;0.20;;;20.80;43.00;;;;;;5000434;28;20235;-73
2021/10/09 11:34:00;;;;;;;1.03;1.03;;;21.00;41.70;;;;;;5002102;28;20640;-73
2021/10/09 11:36:28;;;;;;;0.67;0.67;;;21.10;41.60;;;;;;5001877;28;20694;-73
2021/10/09 11:39:07;;;;;;;0.70;0.57;;;21.00;41.70;;;;;;5003703;28;20250;-73
2021/10/09 11:41:35;;;;;;;0.70;0.60;;;21.00;41.20;;;;;;5018557;28;20270;-73
2021/10/09 11:44:19;;;;;;;0.20;0.20;;;20.80;42.70;;;;;;4999641;28;20239;-73
2021/10/09 11:55:18;;;;;;;0.10;0.10;;;20.40;42.50;;;;;;5006194;28;20219;-73
2021/10/09 11:57:46;;;;;;;0.20;0.20;;;20.60;42.30;;;;;;5020195;28;20212;-73
2021/10/09 12:00:29;;;;;;;0.20;0.20;;;20.90;43.10;;;;;;5007637;28;20935;-73
2021/10/09 12:03:00;;;;;;;0.27;0.27;;;21.10;40.20;;;;;;5004558;28;20231;-73
2021/10/09 12:05:58;;;;;;;0.20;0.20;;;21.20;42.10;;;;;;5004875;28;20220;-73
2021/10/09 12:08:27;;;;;;;0.73;0.40;;;21.10;41.80;;;;;;5004979;28;20559;-73
2021/10/09 12:11:14;;;;;;;0.87;0.87;;;20.90;42.20;;;;;;5004967;28;20216;-73
2021/10/09 12:13:49;;;;;;;2.43;0.97;;;20.90;41.80;;;;;;5005801;28;20223;-73
2021/10/09 12:16:21;;;;;;;0.57;0.57;;;20.70;41.30;;;;;;5007895;28;20223;-73
2021/10/09 12:18:58;;;;;;;0.10;0.10;;;20.30;41.80;;;;;;5004981;28;20231;-73
2021/10/09 12:21:28;;;;;;;0.10;0.10;;;20.00;42.20;;;;;;5007321;28;20224;-73
2021/10/09 12:23:57;;;;;;;8.83;2.60;;;19.70;43.60;;;;;;5006365;28;20247;-73
2021/10/09 12:26:25;;;;;;;0.63;0.63;;;19.80;43.50;;;;;;5007022;28;20251;-73
2021/10/09 12:29:10;;;;;;;0.20;0.20;;;20.10;43.30;;;;;;5005777;28;20610;-73
2021/10/09 12:31:44;;;;;;;1.63;0.47;;;20.30;42.20;;;;;;5006854;28;20595;-73
2021/10/09 12:34:30;;;;;;;0.70;0.70;;;20.30;41.20;;;;;;5005980;28;20211;-73
2021/10/09 12:37:21;;;;;;;1.90;1.57;;;20.00;42.60;;;;;;5003147;28;20532;-73
2021/10/09 12:40:06;;;;;;;0.20;0.20;;;19.90;44.00;;;;;;5004693;28;20228;-73
2021/10/09 12:42:33;;;;;;;0.57;0.40;;;20.20;43.00;;;;;;5007188;28;20636;-73
2021/10/09 12:45:05;;;;;;;0.30;0.30;;;20.40;42.90;;;;;;5011369;28;20223;-72
2021/10/09 12:47:52;;;;;;;0.20;0.20;;;20.50;42.90;;;;;;5003698;28;20684;-73
2021/10/09 12:50:19;;;;;;;2.20;1.17;;;20.40;42.00;;;;;;5006596;28;20212;-73
2021/10/09 12:52:47;;;;;;;0.40;0.40;;;20.10;41.80;;;;;;5004413;28;20217;-73
2021/10/09 12:55:18;;;;;;;0.20;0.20;;;19.90;42.50;;;;;;5012082;28;20244;-73
2021/10/09 12:57:49;;;;;;;1.13;1.13;;;19.90;43.00;;;;;;5006656;28;20209;-73
2021/10/09 13:00:18;;;;;;;1.60;1.40;;;20.00;42.80;;;;;;5002787;28;20208;-73
2021/10/09 13:02:45;;;;;;;0.63;0.63;;;20.10;42.30;;;;;;5002556;28;20350;-73
2021/10/09 13:05:12;;;;;;;0.57;0.27;;;20.10;42.20;;;;;;5005779;28;20239;-73
2021/10/09 13:07:39;;;;;;;1.13;0.57;;;20.00;41.90;;;;;;5004474;28;20641;-73
2021/10/09 13:10:07;;;;;;;1.97;1.53;;;19.80;42.90;;;;;;5001031;28;20223;-72
2021/10/09 13:12:34;;;;;;;0.10;0.10;;;19.80;43.50;;;;;;5003399;28;20576;-73
2021/10/09 13:15:02;;;;;;;0.37;0.30;;;20.00;43.60;;;;;;5001948;28;20601;-73
2021/10/09 13:17:29;;;;;;;0.63;0.63;;;20.20;42.20;;;;;;5006244;28;20580;-73
2021/10/09 13:19:56;;;;;;;0.40;0.27;;;20.30;43.00;;;;;;5000982;28;20274;-73
2021/10/09 13:22:23;;;;;;;0.13;0.13;;;20.30;42.40;;;;;;4997740;28;20212;-73
2021/10/09 13:24:50;;;;;;;0.40;0.30;;;20.40;43.50;;;;;;5003788;28;20251;-73
2021/10/09 13:27:17;;;;;;;0.60;0.60;;;20.40;43.00;;;;;;5013688;28;20303;-72
2021/10/09 13:29:44;;;;;;;0.30;0.30;;;20.40;42.50;;;;;;5013100;28;20258;-73
2021/10/09 13:32:11;;;;;;;0.77;0.77;;;20.40;43.50;;;;;;5013337;28;20251;-73
2021/10/09 13:34:38;;;;;;;0.23;0.23;;;20.50;42.40;;;;;;5012256;28;20208;-73
2021/10/09 13:37:06;;;;;;;0.30;0.30;;;20.50;41.50;;;;;;5013447;28;20216;-73
2021/10/09 13:39:34;;;;;;;0.60;0.60;;;20.40;41.50;;;;;;5013093;28;20215;-72
2021/10/09 13:42:01;;;;;;;0.70;0.70;;;20.30;40.90;;;;;;5010409;28;20230;-73
2021/10/09 13:44:28;;;;;;;0.37;0.37;;;20.30;42.20;;;;;;5013590;28;20224;-73
2021/10/09 13:46:55;;;;;;;0.30;0.30;;;20.30;42.30;;;;;;5012470;28;20211;-73
2021/10/09 13:49:22;;;;;;;3.80;1.47;;;20.30;42.70;;;;;;5013971;28;20208;-73
2021/10/09 13:51:49;;;;;;;4.07;0.43;;;20.30;42.30;;;;;;5011248;28;20287;-73
2021/10/09 13:54:16;;;;;;;0.10;0.10;;;20.30;41.70;;;;;;5013356;28;20215;-73
2021/10/09 13:56:43;;;;;;;0.20;0.20;;;20.30;42.30;;;;;;5012200;28;20277;-73
2021/10/09 13:59:10;;;;;;;0.80;0.80;;;20.20;42.90;;;;;;5013250;28;20204;-73
2021/10/09 14:01:42;;;;;;;0.37;0.37;;;20.00;42.50;;;;;;5012967;28;20223;-73
2021/10/09 14:04:10;;;;;;;0.33;0.33;;;19.80;41.30;;;;;;5012370;28;20322;-73
2021/10/09 14:06:37;;;;;;;0.40;0.40;;;19.70;41.40;;;;;;5013281;28;20266;-72
2021/10/09 14:09:04;;;;;;;0.30;0.30;;;19.60;42.30;;;;;;5013289;28;20203;-72
2021/10/09 14:11:31;;;;;;;0.10;0.10;;;19.60;43.40;;;;;;5011877;28;20215;-72
2021/10/09 14:13:58;;;;;;;2.23;1.73;;;19.60;42.90;;;;;;5010627;28;20224;-73
2021/10/09 14:16:25;;;;;;;0.20;0.20;;;19.60;42.50;;;;;;5010375;28;20755;-73
2021/10/09 14:18:52;;;;;;;0.70;0.70;;;19.60;42.30;;;;;;5012584;28;20203;-73
2021/10/09 14:21:20;;;;;;;0.33;0.33;;;19.60;42.70;;;;;;5011662;28;20257;-73
2021/10/09 14:23:47;;;;;;;0.47;0.47;;;19.60;42.00;;;;;;5012519;28;20231;-73
2021/10/09 14:26:17;;;;;;;7.83;0.40;;;19.60;42.20;;;;;;5012089;28;20240;-73
2021/10/09 14:28:44;;;;;;;1.37;1.10;;;19.50;42.80;;;;;;5011365;28;20223;-73
2021/10/09 14:31:11;;;;;;;1.50;1.40;;;19.50;43.50;;;;;;5011966;28;20519;-73
2021/10/09 14:33:38;;;;;;;0.70;0.70;;;19.50;44.40;;;;;;5011506;28;20303;-73
2021/10/09 14:36:05;;;;;;;0.60;0.60;;;19.50;44.80;;;;;;5012282;28;20216;-73
2021/10/09 14:38:32;;;;;;;0.43;0.43;;;19.50;44.70;;;;;;5013606;28;20208;-73
2021/10/09 14:40:59;;;;;;;0.33;0.33;;;19.50;44.30;;;;;;5011565;28;20211;-73
2021/10/09 14:43:26;;;;;;;0.37;0.37;;;19.40;44.00;;;;;;5013422;28;20237;-72
2021/10/09 14:45:58;;;;;;;0.87;0.87;;;19.40;43.40;;;;;;5012973;28;20306;-73
2021/10/09 14:48:33;;;;;;;1.93;0.30;;;19.30;43.00;;;;;;5012820;28;20299;-73
2021/10/09 14:51:16;;;;;;;14.33;1.97;;;19.20;43.10;;;;;;5012499;28;20192;-72
2021/10/09 15:18:38;;;;;;;0.30;0.30;;;18.60;47.10;;;;;;5012898;28;20644;-72
2021/10/09 15:21:05;;;;;;;0.23;0.23;;;18.60;47.10;;;;;;5013001;28;20216;-73
2021/10/09 15:23:32;;;;;;;1.70;1.23;;;18.60;47.10;;;;;;5012771;28;20231;-72
2021/10/09 15:25:59;;;;;;;0.77;0.77;;;18.50;47.60;;;;;;5011426;28;20250;-72
2021/10/09 15:28:26;;;;;;;0.50;0.50;;;18.40;47.40;;;;;;5012706;28;20222;-72
2021/10/09 15:31:11;;;;;;;1.33;1.23;;;18.40;47.30;;;;;;5012394;28;20298;-72
2021/10/09 15:33:39;;;;;;;0.10;0.10;;;18.40;47.40;;;;;;5012338;28;20224;-72
2021/10/09 15:36:06;;;;;;;0.47;0.47;;;18.30;48.00;;;;;;5011942;28;20220;-73
2021/10/09 15:38:33;;;;;;;0.50;0.20;;;18.30;48.40;;;;;;5011845;28;20294;-72
2021/10/09 15:41:02;;;;;;;0.50;0.50;;;18.30;49.30;;;;;;5012719;28;20222;-72